sensor_id;sensor_type;location;lat;lon;timestamp;P1;durP1;ratioP1;P2;durP2;ratioP2
20101;SDS011;10210;52.284;9.892;2023-07-29T00:01:50;2.83;;;1.60;;
20101;SDS011;10210;52.284;9.892;2023-07-29T00:04:17;3.13;;;1.70;;
20101;SDS011;10210;52.284;9.892;2023-07-29T00:06:42;2.87;;;1.63;;
20101;SDS011;10210;52.284;9.892;2023-07-29T00:09:08;3.30;;;1.70;;
20101;SDS011;10210;52.284;9.892;2023-07-29T00:11:34;4.40;;;1.70;;
20101;SDS011;10210;52.284;9.892;2023-07-29T00:14:00;2.90;;;1.70;;
20101;SDS011;10210;52.284;9.892;2023-07-29T00:16:26;3.20;;;1.70;;
20101;SDS011;10210;52.284;9.892;2023-07-29T00:18:52;3.53;;;1.77;;
20101;SDS011;10210;52.284;9.892;2023-07-29T00:21:18;4.13;;;1.60;;
20101;SDS011;10210;52.284;9.892;2023-07-29T00:23:44;3.50;;;1.50;;
20101;SDS011;10210;52.284;9.892;2023-07-29T00:26:10;3.83;;;1.73;;
20101;SDS011;10210;52.284;9.892;2023-07-29T00:28:37;2.37;;;1.53;;
20101;SDS011;10210;52.284;9.892;2023-07-29T00:31:03;4.00;;;1.77;;
20101;SDS011;10210;52.284;9.892;2023-07-29T00:33:28;6.80;;;1.67;;
20101;SDS011;10210;52.284;9.892;2023-07-29T00:35:54;4.07;;;1.67;;
20101;SDS011;10210;52.284;9.892;2023-07-29T00:38:20;3.23;;;2.00;;
20101;SDS011;10210;52.284;9.892;2023-07-29T00:40:45;3.83;;;1.70;;
20101;SDS011;10210;52.284;9.892;2023-07-29T00:43:11;3.57;;;1.80;;
20101;SDS011;10210;52.284;9.892;2023-07-29T00:45:37;4.50;;;1.90;;
20101;SDS011;10210;52.284;9.892;2023-07-29T00:48:04;3.47;;;1.70;;
20101;SDS011;10210;52.284;9.892;2023-07-29T00:50:31;3.30;;;1.87;;
20101;SDS011;10210;52.284;9.892;2023-07-29T00:52:57;3.27;;;1.80;;
20101;SDS011;10210;52.284;9.892;2023-07-29T00:55:23;3.00;;;1.90;;
20101;SDS011;10210;52.284;9.892;2023-07-29T00:57:50;3.20;;;1.73;;
20101;SDS011;10210;52.284;9.892;2023-07-29T01:00:19;2.67;;;1.67;;
20101;SDS011;10210;52.284;9.892;2023-07-29T01:02:46;2.50;;;1.60;;
20101;SDS011;10210;52.284;9.892;2023-07-29T01:05:13;4.23;;;1.90;;
20101;SDS011;10210;52.284;9.892;2023-07-29T01:07:47;2.90;;;1.63;;
20101;SDS011;10210;52.284;9.892;2023-07-29T01:11:01;3.83;;;2.07;;
20101;SDS011;10210;52.284;9.892;2023-07-29T01:13:58;3.30;;;1.83;;
20101;SDS011;10210;52.284;9.892;2023-07-29T01:16:46;3.73;;;1.60;;
20101;SDS011;10210;52.284;9.892;2023-07-29T01:20:04;4.10;;;1.60;;
20101;SDS011;10210;52.284;9.892;2023-07-29T01:22:23;2.43;;;1.60;;
20101;SDS011;10210;52.284;9.892;2023-07-29T01:24:50;4.30;;;1.80;;
20101;SDS011;10210;52.284;9.892;2023-07-29T01:27:15;3.00;;;1.80;;
20101;SDS011;10210;52.284;9.892;2023-07-29T01:29:41;4.40;;;1.87;;
20101;SDS011;10210;52.284;9.892;2023-07-29T01:32:09;3.27;;;1.70;;
20101;SDS011;10210;52.284;9.892;2023-07-29T01:34:48;2.80;;;1.70;;
20101;SDS011;10210;52.284;9.892;2023-07-29T01:37:40;2.57;;;1.60;;
20101;SDS011;10210;52.284;9.892;2023-07-29T01:40:08;2.27;;;1.60;;
20101;SDS011;10210;52.284;9.892;2023-07-29T01:42:35;3.13;;;1.80;;
20101;SDS011;10210;52.284;9.892;2023-07-29T01:45:01;2.40;;;1.70;;
20101;SDS011;10210;52.284;9.892;2023-07-29T01:47:28;2.50;;;1.80;;
20101;SDS011;10210;52.284;9.892;2023-07-29T01:49:54;4.40;;;1.97;;
20101;SDS011;10210;52.284;9.892;2023-07-29T01:52:19;2.80;;;1.87;;
20101;SDS011;10210;52.284;9.892;2023-07-29T01:54:45;3.03;;;1.83;;
20101;SDS011;10210;52.284;9.892;2023-07-29T01:57:11;3.30;;;2.00;;
20101;SDS011;10210;52.284;9.892;2023-07-29T01:59:37;3.23;;;1.90;;
20101;SDS011;10210;52.284;9.892;2023-07-29T02:02:03;3.83;;;2.00;;
20101;SDS011;10210;52.284;9.892;2023-07-29T02:04:28;3.37;;;1.90;;
20101;SDS011;10210;52.284;9.892;2023-07-29T02:06:54;3.97;;;2.00;;
20101;SDS011;10210;52.284;9.892;2023-07-29T02:09:20;3.17;;;1.80;;
20101;SDS011;10210;52.284;9.892;2023-07-29T02:11:45;3.83;;;1.83;;
20101;SDS011;10210;52.284;9.892;2023-07-29T02:14:11;3.90;;;1.97;;
20101;SDS011;10210;52.284;9.892;2023-07-29T02:16:37;2.90;;;1.53;;
20101;SDS011;10210;52.284;9.892;2023-07-29T02:19:04;3.43;;;1.83;;
20101;SDS011;10210;52.284;9.892;2023-07-29T02:21:29;3.60;;;1.70;;
20101;SDS011;10210;52.284;9.892;2023-07-29T02:23:55;3.20;;;1.87;;
20101;SDS011;10210;52.284;9.892;2023-07-29T02:26:21;3.80;;;1.90;;
20101;SDS011;10210;52.284;9.892;2023-07-29T02:28:47;2.30;;;1.60;;
20101;SDS011;10210;52.284;9.892;2023-07-29T02:31:24;3.97;;;1.77;;
20101;SDS011;10210;52.284;9.892;2023-07-29T02:33:50;3.60;;;1.67;;
20101;SDS011;10210;52.284;9.892;2023-07-29T02:36:17;3.17;;;1.70;;
20101;SDS011;10210;52.284;9.892;2023-07-29T02:38:43;2.47;;;1.67;;
20101;SDS011;10210;52.284;9.892;2023-07-29T02:41:09;3.23;;;1.80;;
20101;SDS011;10210;52.284;9.892;2023-07-29T02:43:41;4.63;;;1.80;;
20101;SDS011;10210;52.284;9.892;2023-07-29T02:46:08;4.17;;;1.90;;
20101;SDS011;10210;52.284;9.892;2023-07-29T02:48:34;2.67;;;1.53;;
20101;SDS011;10210;52.284;9.892;2023-07-29T02:51:00;3.80;;;1.67;;
20101;SDS011;10210;52.284;9.892;2023-07-29T02:53:25;1.87;;;1.50;;
20101;SDS011;10210;52.284;9.892;2023-07-29T02:55:51;2.73;;;1.60;;
20101;SDS011;10210;52.284;9.892;2023-07-29T02:58:16;4.77;;;1.87;;
20101;SDS011;10210;52.284;9.892;2023-07-29T03:00:42;2.93;;;1.80;;
20101;SDS011;10210;52.284;9.892;2023-07-29T03:03:08;3.00;;;1.60;;
20101;SDS011;10210;52.284;9.892;2023-07-29T03:05:34;4.17;;;1.90;;
20101;SDS011;10210;52.284;9.892;2023-07-29T03:08:00;3.03;;;1.50;;
20101;SDS011;10210;52.284;9.892;2023-07-29T03:10:26;3.57;;;1.90;;
20101;SDS011;10210;52.284;9.892;2023-07-29T03:12:55;2.83;;;1.83;;
20101;SDS011;10210;52.284;9.892;2023-07-29T03:15:24;3.33;;;1.77;;
20101;SDS011;10210;52.284;9.892;2023-07-29T03:17:50;3.37;;;2.00;;
20101;SDS011;10210;52.284;9.892;2023-07-29T03:20:17;2.63;;;1.70;;
20101;SDS011;10210;52.284;9.892;2023-07-29T03:22:44;2.67;;;1.60;;
20101;SDS011;10210;52.284;9.892;2023-07-29T03:25:11;4.50;;;1.90;;
20101;SDS011;10210;52.284;9.892;2023-07-29T03:27:38;2.03;;;1.47;;
20101;SDS011;10210;52.284;9.892;2023-07-29T03:30:05;2.53;;;1.47;;
20101;SDS011;10210;52.284;9.892;2023-07-29T03:32:32;3.13;;;1.70;;
20101;SDS011;10210;52.284;9.892;2023-07-29T03:34:58;2.63;;;1.60;;
20101;SDS011;10210;52.284;9.892;2023-07-29T03:37:23;2.73;;;1.60;;
20101;SDS011;10210;52.284;9.892;2023-07-29T03:39:49;2.97;;;1.70;;
20101;SDS011;10210;52.284;9.892;2023-07-29T03:42:17;2.37;;;1.67;;
20101;SDS011;10210;52.284;9.892;2023-07-29T03:44:43;2.70;;;1.80;;
20101;SDS011;10210;52.284;9.892;2023-07-29T03:47:08;3.40;;;1.70;;
20101;SDS011;10210;52.284;9.892;2023-07-29T03:49:34;2.30;;;1.70;;
20101;SDS011;10210;52.284;9.892;2023-07-29T03:51:59;4.87;;;1.60;;
20101;SDS011;10210;52.284;9.892;2023-07-29T03:54:25;4.37;;;1.73;;
20101;SDS011;10210;52.284;9.892;2023-07-29T03:56:51;5.07;;;1.83;;
20101;SDS011;10210;52.284;9.892;2023-07-29T03:59:17;4.33;;;1.70;;
20101;SDS011;10210;52.284;9.892;2023-07-29T04:01:42;5.53;;;1.73;;
20101;SDS011;10210;52.284;9.892;2023-07-29T04:04:08;2.23;;;1.50;;
20101;SDS011;10210;52.284;9.892;2023-07-29T04:06:34;3.23;;;1.70;;
20101;SDS011;10210;52.284;9.892;2023-07-29T04:09:00;4.97;;;2.03;;
20101;SDS011;10210;52.284;9.892;2023-07-29T04:11:26;3.00;;;1.70;;
20101;SDS011;10210;52.284;9.892;2023-07-29T04:13:51;2.23;;;1.60;;
20101;SDS011;10210;52.284;9.892;2023-07-29T04:16:17;2.77;;;1.50;;
20101;SDS011;10210;52.284;9.892;2023-07-29T04:18:42;3.50;;;1.77;;
20101;SDS011;10210;52.284;9.892;2023-07-29T04:21:08;6.47;;;2.20;;
20101;SDS011;10210;52.284;9.892;2023-07-29T04:23:34;5.17;;;2.00;;
20101;SDS011;10210;52.284;9.892;2023-07-29T04:26:00;6.27;;;1.93;;
20101;SDS011;10210;52.284;9.892;2023-07-29T04:28:26;5.03;;;1.90;;
20101;SDS011;10210;52.284;9.892;2023-07-29T04:30:51;2.73;;;1.60;;
20101;SDS011;10210;52.284;9.892;2023-07-29T04:33:17;3.63;;;1.80;;
20101;SDS011;10210;52.284;9.892;2023-07-29T04:35:43;4.43;;;1.93;;
20101;SDS011;10210;52.284;9.892;2023-07-29T04:38:09;5.00;;;1.93;;
20101;SDS011;10210;52.284;9.892;2023-07-29T04:40:34;6.97;;;2.00;;
20101;SDS011;10210;52.284;9.892;2023-07-29T04:43:00;3.60;;;1.90;;
20101;SDS011;10210;52.284;9.892;2023-07-29T04:45:29;3.57;;;1.73;;
20101;SDS011;10210;52.284;9.892;2023-07-29T04:47:56;6.90;;;2.00;;
20101;SDS011;10210;52.284;9.892;2023-07-29T04:50:23;4.90;;;2.00;;
20101;SDS011;10210;52.284;9.892;2023-07-29T04:52:49;4.37;;;1.80;;
20101;SDS011;10210;52.284;9.892;2023-07-29T04:55:14;3.07;;;1.77;;
20101;SDS011;10210;52.284;9.892;2023-07-29T04:57:40;5.20;;;1.77;;
20101;SDS011;10210;52.284;9.892;2023-07-29T05:00:06;3.37;;;1.80;;
20101;SDS011;10210;52.284;9.892;2023-07-29T05:02:32;4.90;;;1.70;;
20101;SDS011;10210;52.284;9.892;2023-07-29T05:04:58;3.73;;;1.90;;
20101;SDS011;10210;52.284;9.892;2023-07-29T05:07:24;5.53;;;2.00;;
20101;SDS011;10210;52.284;9.892;2023-07-29T05:09:49;4.47;;;1.77;;
20101;SDS011;10210;52.284;9.892;2023-07-29T05:12:15;3.10;;;1.73;;
20101;SDS011;10210;52.284;9.892;2023-07-29T05:14:41;4.57;;;1.83;;
20101;SDS011;10210;52.284;9.892;2023-07-29T05:17:06;4.13;;;1.80;;
20101;SDS011;10210;52.284;9.892;2023-07-29T05:19:32;3.40;;;1.80;;
20101;SDS011;10210;52.284;9.892;2023-07-29T05:21:58;4.43;;;1.87;;
20101;SDS011;10210;52.284;9.892;2023-07-29T05:24:23;3.97;;;1.70;;
20101;SDS011;10210;52.284;9.892;2023-07-29T05:26:49;2.93;;;1.70;;
20101;SDS011;10210;52.284;9.892;2023-07-29T05:29:15;2.97;;;1.70;;
20101;SDS011;10210;52.284;9.892;2023-07-29T05:31:40;4.63;;;1.77;;
20101;SDS011;10210;52.284;9.892;2023-07-29T05:34:06;3.73;;;1.73;;
20101;SDS011;10210;52.284;9.892;2023-07-29T05:36:32;5.13;;;1.93;;
20101;SDS011;10210;52.284;9.892;2023-07-29T05:38:58;3.73;;;1.60;;
20101;SDS011;10210;52.284;9.892;2023-07-29T05:41:23;3.73;;;1.73;;
20101;SDS011;10210;52.284;9.892;2023-07-29T05:43:52;2.90;;;1.60;;
20101;SDS011;10210;52.284;9.892;2023-07-29T05:46:18;3.73;;;1.93;;
20101;SDS011;10210;52.284;9.892;2023-07-29T05:48:43;3.67;;;1.90;;
20101;SDS011;10210;52.284;9.892;2023-07-29T05:51:09;4.00;;;1.80;;
20101;SDS011;10210;52.284;9.892;2023-07-29T05:53:35;3.30;;;1.83;;
20101;SDS011;10210;52.284;9.892;2023-07-29T05:56:01;2.80;;;1.80;;
20101;SDS011;10210;52.284;9.892;2023-07-29T05:58:26;4.13;;;2.17;;
20101;SDS011;10210;52.284;9.892;2023-07-29T06:00:52;4.70;;;1.80;;
20101;SDS011;10210;52.284;9.892;2023-07-29T06:03:18;4.53;;;2.10;;
20101;SDS011;10210;52.284;9.892;2023-07-29T06:05:43;3.50;;;1.73;;
20101;SDS011;10210;52.284;9.892;2023-07-29T06:08:09;6.63;;;2.20;;
20101;SDS011;10210;52.284;9.892;2023-07-29T06:10:35;4.63;;;2.13;;
20101;SDS011;10210;52.284;9.892;2023-07-29T06:13:00;5.57;;;1.97;;
20101;SDS011;10210;52.284;9.892;2023-07-29T06:15:26;4.50;;;1.87;;
20101;SDS011;10210;52.284;9.892;2023-07-29T06:17:51;2.90;;;1.90;;
20101;SDS011;10210;52.284;9.892;2023-07-29T06:20:17;5.37;;;2.07;;
20101;SDS011;10210;52.284;9.892;2023-07-29T06:22:43;3.20;;;1.80;;
20101;SDS011;10210;52.284;9.892;2023-07-29T06:25:09;4.37;;;2.03;;
20101;SDS011;10210;52.284;9.892;2023-07-29T06:27:35;2.87;;;1.90;;
20101;SDS011;10210;52.284;9.892;2023-07-29T06:30:00;5.03;;;2.00;;
20101;SDS011;10210;52.284;9.892;2023-07-29T06:32:26;2.77;;;1.80;;
20101;SDS011;10210;52.284;9.892;2023-07-29T06:34:52;5.00;;;2.00;;
20101;SDS011;10210;52.284;9.892;2023-07-29T06:37:19;4.90;;;2.20;;
20101;SDS011;10210;52.284;9.892;2023-07-29T06:39:45;6.23;;;2.03;;
20101;SDS011;10210;52.284;9.892;2023-07-29T06:42:12;5.00;;;1.90;;
20101;SDS011;10210;52.284;9.892;2023-07-29T06:44:38;4.97;;;2.10;;
20101;SDS011;10210;52.284;9.892;2023-07-29T06:47:03;5.73;;;2.13;;
20101;SDS011;10210;52.284;9.892;2023-07-29T06:49:29;5.77;;;2.60;;
20101;SDS011;10210;52.284;9.892;2023-07-29T06:51:55;3.67;;;2.00;;
20101;SDS011;10210;52.284;9.892;2023-07-29T06:54:24;4.57;;;2.03;;
20101;SDS011;10210;52.284;9.892;2023-07-29T06:56:53;4.40;;;2.00;;
20101;SDS011;10210;52.284;9.892;2023-07-29T06:59:18;4.77;;;2.03;;
20101;SDS011;10210;52.284;9.892;2023-07-29T07:01:44;3.67;;;2.10;;
20101;SDS011;10210;52.284;9.892;2023-07-29T07:04:10;4.33;;;1.70;;
20101;SDS011;10210;52.284;9.892;2023-07-29T07:06:37;2.63;;;1.70;;
20101;SDS011;10210;52.284;9.892;2023-07-29T07:09:03;4.10;;;1.97;;
20101;SDS011;10210;52.284;9.892;2023-07-29T07:11:28;3.80;;;1.80;;
20101;SDS011;10210;52.284;9.892;2023-07-29T07:13:54;2.17;;;1.67;;
20101;SDS011;10210;52.284;9.892;2023-07-29T07:16:20;5.23;;;1.73;;
20101;SDS011;10210;52.284;9.892;2023-07-29T07:18:45;2.27;;;1.50;;
20101;SDS011;10210;52.284;9.892;2023-07-29T07:21:11;4.63;;;1.70;;
20101;SDS011;10210;52.284;9.892;2023-07-29T07:23:38;2.70;;;1.40;;
20101;SDS011;10210;52.284;9.892;2023-07-29T07:26:04;3.00;;;1.70;;
20101;SDS011;10210;52.284;9.892;2023-07-29T07:28:30;3.53;;;1.70;;
20101;SDS011;10210;52.284;9.892;2023-07-29T07:30:56;3.77;;;1.60;;
20101;SDS011;10210;52.284;9.892;2023-07-29T07:33:22;4.20;;;1.60;;
20101;SDS011;10210;52.284;9.892;2023-07-29T07:35:49;2.53;;;1.47;;
20101;SDS011;10210;52.284;9.892;2023-07-29T07:38:14;2.10;;;1.50;;
20101;SDS011;10210;52.284;9.892;2023-07-29T07:40:40;2.13;;;1.40;;
20101;SDS011;10210;52.284;9.892;2023-07-29T07:43:05;2.93;;;1.60;;
20101;SDS011;10210;52.284;9.892;2023-07-29T07:45:34;2.87;;;1.50;;
20101;SDS011;10210;52.284;9.892;2023-07-29T07:48:00;3.27;;;1.70;;
20101;SDS011;10210;52.284;9.892;2023-07-29T07:50:29;2.70;;;1.63;;
20101;SDS011;10210;52.284;9.892;2023-07-29T07:52:55;3.70;;;2.00;;
20101;SDS011;10210;52.284;9.892;2023-07-29T07:55:21;3.10;;;1.77;;
20101;SDS011;10210;52.284;9.892;2023-07-29T07:57:46;4.10;;;1.80;;
20101;SDS011;10210;52.284;9.892;2023-07-29T08:00:12;3.53;;;1.80;;
20101;SDS011;10210;52.284;9.892;2023-07-29T08:02:40;3.70;;;1.63;;
20101;SDS011;10210;52.284;9.892;2023-07-29T08:05:06;2.23;;;1.50;;
20101;SDS011;10210;52.284;9.892;2023-07-29T08:07:32;3.13;;;1.70;;
20101;SDS011;10210;52.284;9.892;2023-07-29T08:09:57;2.90;;;1.63;;
20101;SDS011;10210;52.284;9.892;2023-07-29T08:12:23;3.63;;;1.50;;
20101;SDS011;10210;52.284;9.892;2023-07-29T08:14:49;2.60;;;1.50;;
20101;SDS011;10210;52.284;9.892;2023-07-29T08:17:14;3.23;;;1.40;;
20101;SDS011;10210;52.284;9.892;2023-07-29T08:19:40;2.20;;;1.50;;
20101;SDS011;10210;52.284;9.892;2023-07-29T08:22:06;3.93;;;1.67;;
20101;SDS011;10210;52.284;9.892;2023-07-29T08:24:31;3.90;;;1.70;;
20101;SDS011;10210;52.284;9.892;2023-07-29T08:26:57;1.93;;;1.40;;
20101;SDS011;10210;52.284;9.892;2023-07-29T08:29:23;4.83;;;1.57;;
20101;SDS011;10210;52.284;9.892;2023-07-29T08:31:48;2.67;;;1.43;;
20101;SDS011;10210;52.284;9.892;2023-07-29T08:34:16;1.60;;;1.33;;
20101;SDS011;10210;52.284;9.892;2023-07-29T08:36:42;4.07;;;1.70;;
20101;SDS011;10210;52.284;9.892;2023-07-29T08:39:08;2.50;;;1.67;;
20101;SDS011;10210;52.284;9.892;2023-07-29T08:41:47;4.33;;;1.67;;
20101;SDS011;10210;52.284;9.892;2023-07-29T08:44:23;2.90;;;1.80;;
20101;SDS011;10210;52.284;9.892;2023-07-29T08:46:54;3.50;;;1.60;;
20101;SDS011;10210;52.284;9.892;2023-07-29T08:49:22;3.47;;;1.80;;
20101;SDS011;10210;52.284;9.892;2023-07-29T08:51:49;3.67;;;2.07;;
20101;SDS011;10210;52.284;9.892;2023-07-29T08:54:18;3.47;;;1.90;;
20101;SDS011;10210;52.284;9.892;2023-07-29T08:56:44;3.00;;;1.90;;
20101;SDS011;10210;52.284;9.892;2023-07-29T08:59:12;2.53;;;1.80;;
20101;SDS011;10210;52.284;9.892;2023-07-29T09:01:39;1.80;;;1.50;;
20101;SDS011;10210;52.284;9.892;2023-07-29T09:04:06;2.73;;;1.83;;
20101;SDS011;10210;52.284;9.892;2023-07-29T09:06:32;3.47;;;1.80;;
20101;SDS011;10210;52.284;9.892;2023-07-29T09:09:00;2.83;;;1.90;;
20101;SDS011;10210;52.284;9.892;2023-07-29T09:11:27;2.67;;;2.07;;
20101;SDS011;10210;52.284;9.892;2023-07-29T09:13:53;3.50;;;2.20;;
20101;SDS011;10210;52.284;9.892;2023-07-29T09:16:20;6.17;;;2.90;;
20101;SDS011;10210;52.284;9.892;2023-07-29T09:18:49;3.30;;;2.17;;
20101;SDS011;10210;52.284;9.892;2023-07-29T09:21:23;3.33;;;2.20;;
20101;SDS011;10210;52.284;9.892;2023-07-29T09:23:51;4.53;;;2.30;;
20101;SDS011;10210;52.284;9.892;2023-07-29T09:26:27;4.37;;;2.03;;
20101;SDS011;10210;52.284;9.892;2023-07-29T09:28:54;3.00;;;2.10;;
20101;SDS011;10210;52.284;9.892;2023-07-29T09:31:22;3.30;;;2.33;;
20101;SDS011;10210;52.284;9.892;2023-07-29T09:33:50;3.80;;;2.30;;
20101;SDS011;10210;52.284;9.892;2023-07-29T09:36:23;3.33;;;2.30;;
20101;SDS011;10210;52.284;9.892;2023-07-29T09:38:51;4.83;;;2.60;;
20101;SDS011;10210;52.284;9.892;2023-07-29T09:41:20;3.70;;;2.43;;
20101;SDS011;10210;52.284;9.892;2023-07-29T09:43:51;5.87;;;2.57;;
20101;SDS011;10210;52.284;9.892;2023-07-29T09:46:31;5.20;;;2.70;;
20101;SDS011;10210;52.284;9.892;2023-07-29T09:49:02;4.87;;;2.80;;
20101;SDS011;10210;52.284;9.892;2023-07-29T09:51:29;5.70;;;3.10;;
20101;SDS011;10210;52.284;9.892;2023-07-29T09:53:55;6.97;;;3.13;;
20101;SDS011;10210;52.284;9.892;2023-07-29T09:56:25;7.07;;;3.57;;
20101;SDS011;10210;52.284;9.892;2023-07-29T09:58:51;7.50;;;3.60;;
20101;SDS011;10210;52.284;9.892;2023-07-29T10:01:19;8.43;;;4.07;;
20101;SDS011;10210;52.284;9.892;2023-07-29T10:03:47;6.70;;;3.53;;
20101;SDS011;10210;52.284;9.892;2023-07-29T10:06:15;9.10;;;4.53;;
20101;SDS011;10210;52.284;9.892;2023-07-29T10:08:42;9.73;;;4.90;;
20101;SDS011;10210;52.284;9.892;2023-07-29T10:11:09;10.43;;;4.90;;
20101;SDS011;10210;52.284;9.892;2023-07-29T10:13:37;11.20;;;5.50;;
20101;SDS011;10210;52.284;9.892;2023-07-29T10:16:04;13.77;;;6.90;;
20101;SDS011;10210;52.284;9.892;2023-07-29T10:18:31;13.00;;;6.77;;
20101;SDS011;10210;52.284;9.892;2023-07-29T10:20:59;12.67;;;7.17;;
20101;SDS011;10210;52.284;9.892;2023-07-29T10:23:27;12.57;;;7.30;;
20101;SDS011;10210;52.284;9.892;2023-07-29T10:26:03;12.97;;;6.80;;
20101;SDS011;10210;52.284;9.892;2023-07-29T10:28:32;12.00;;;6.40;;
20101;SDS011;10210;52.284;9.892;2023-07-29T10:30:59;11.20;;;6.00;;
20101;SDS011;10210;52.284;9.892;2023-07-29T10:33:25;11.73;;;5.80;;
20101;SDS011;10210;52.284;9.892;2023-07-29T10:35:52;11.53;;;5.80;;
20101;SDS011;10210;52.284;9.892;2023-07-29T10:38:21;10.23;;;5.40;;
20101;SDS011;10210;52.284;9.892;2023-07-29T10:40:53;10.10;;;5.30;;
20101;SDS011;10210;52.284;9.892;2023-07-29T10:45:50;9.77;;;4.80;;
20101;SDS011;10210;52.284;9.892;2023-07-29T10:51:21;9.53;;;4.83;;
20101;SDS011;10210;52.284;9.892;2023-07-29T10:54:11;10.57;;;4.70;;
20101;SDS011;10210;52.284;9.892;2023-07-29T10:56:42;9.70;;;4.77;;
20101;SDS011;10210;52.284;9.892;2023-07-29T11:01:40;9.23;;;4.17;;
20101;SDS011;10210;52.284;9.892;2023-07-29T11:07:01;9.23;;;4.20;;
20101;SDS011;10210;52.284;9.892;2023-07-29T11:09:52;7.93;;;3.87;;
20101;SDS011;10210;52.284;9.892;2023-07-29T11:15:22;6.87;;;3.47;;
20101;SDS011;10210;52.284;9.892;2023-07-29T11:20:24;6.83;;;3.77;;
20101;SDS011;10210;52.284;9.892;2023-07-29T11:22:53;6.70;;;3.47;;
20101;SDS011;10210;52.284;9.892;2023-07-29T11:25:20;5.70;;;3.10;;
20101;SDS011;10210;52.284;9.892;2023-07-29T11:27:49;6.77;;;3.50;;
20101;SDS011;10210;52.284;9.892;2023-07-29T11:30:18;5.67;;;3.23;;
20101;SDS011;10210;52.284;9.892;2023-07-29T11:32:44;6.00;;;3.27;;
20101;SDS011;10210;52.284;9.892;2023-07-29T11:35:12;6.73;;;3.00;;
20101;SDS011;10210;52.284;9.892;2023-07-29T11:37:44;5.77;;;2.57;;
20101;SDS011;10210;52.284;9.892;2023-07-29T11:40:18;5.83;;;2.93;;
20101;SDS011;10210;52.284;9.892;2023-07-29T11:42:46;5.30;;;2.83;;
20101;SDS011;10210;52.284;9.892;2023-07-29T11:45:15;5.23;;;2.77;;
20101;SDS011;10210;52.284;9.892;2023-07-29T11:47:41;3.83;;;2.20;;
20101;SDS011;10210;52.284;9.892;2023-07-29T11:50:08;4.77;;;2.30;;
20101;SDS011;10210;52.284;9.892;2023-07-29T11:52:39;5.07;;;2.60;;
20101;SDS011;10210;52.284;9.892;2023-07-29T11:55:08;4.17;;;2.30;;
20101;SDS011;10210;52.284;9.892;2023-07-29T11:57:35;4.80;;;2.00;;
20101;SDS011;10210;52.284;9.892;2023-07-29T12:00:03;4.27;;;1.70;;
20101;SDS011;10210;52.284;9.892;2023-07-29T12:02:31;2.77;;;1.40;;
20101;SDS011;10210;52.284;9.892;2023-07-29T12:05:02;2.77;;;1.60;;
20101;SDS011;10210;52.284;9.892;2023-07-29T12:07:30;7.73;;;1.90;;
20101;SDS011;10210;52.284;9.892;2023-07-29T12:09:56;2.47;;;1.40;;
20101;SDS011;10210;52.284;9.892;2023-07-29T12:12:22;2.77;;;1.57;;
20101;SDS011;10210;52.284;9.892;2023-07-29T12:14:48;3.07;;;1.27;;
20101;SDS011;10210;52.284;9.892;2023-07-29T12:17:14;2.50;;;1.40;;
20101;SDS011;10210;52.284;9.892;2023-07-29T12:19:40;2.13;;;1.30;;
20101;SDS011;10210;52.284;9.892;2023-07-29T12:22:08;1.87;;;1.20;;
20101;SDS011;10210;52.284;9.892;2023-07-29T12:24:36;3.87;;;1.57;;
20101;SDS011;10210;52.284;9.892;2023-07-29T12:27:04;2.30;;;1.23;;
20101;SDS011;10210;52.284;9.892;2023-07-29T12:29:39;2.17;;;1.20;;
20101;SDS011;10210;52.284;9.892;2023-07-29T12:32:07;2.93;;;1.50;;
20101;SDS011;10210;52.284;9.892;2023-07-29T12:34:33;2.37;;;1.27;;
20101;SDS011;10210;52.284;9.892;2023-07-29T12:37:03;2.23;;;1.30;;
20101;SDS011;10210;52.284;9.892;2023-07-29T12:39:31;1.60;;;1.17;;
20101;SDS011;10210;52.284;9.892;2023-07-29T12:41:59;2.77;;;1.40;;
20101;SDS011;10210;52.284;9.892;2023-07-29T12:44:29;1.87;;;1.27;;
20101;SDS011;10210;52.284;9.892;2023-07-29T12:46:59;1.93;;;1.10;;
20101;SDS011;10210;52.284;9.892;2023-07-29T12:49:30;1.30;;;1.10;;
20101;SDS011;10210;52.284;9.892;2023-07-29T12:51:57;3.67;;;1.30;;
20101;SDS011;10210;52.284;9.892;2023-07-29T12:54:24;2.20;;;1.20;;
20101;SDS011;10210;52.284;9.892;2023-07-29T12:56:50;2.27;;;1.27;;
20101;SDS011;10210;52.284;9.892;2023-07-29T12:59:16;3.33;;;1.30;;
20101;SDS011;10210;52.284;9.892;2023-07-29T13:01:42;1.47;;;1.00;;
20101;SDS011;10210;52.284;9.892;2023-07-29T13:04:09;2.07;;;0.97;;
20101;SDS011;10210;52.284;9.892;2023-07-29T13:06:35;1.57;;;1.00;;
20101;SDS011;10210;52.284;9.892;2023-07-29T13:09:01;2.37;;;1.10;;
20101;SDS011;10210;52.284;9.892;2023-07-29T13:11:26;1.50;;;1.10;;
20101;SDS011;10210;52.284;9.892;2023-07-29T13:13:52;2.50;;;1.20;;
20101;SDS011;10210;52.284;9.892;2023-07-29T13:16:18;1.60;;;1.10;;
20101;SDS011;10210;52.284;9.892;2023-07-29T13:18:43;2.80;;;1.17;;
20101;SDS011;10210;52.284;9.892;2023-07-29T13:21:09;2.63;;;1.03;;
20101;SDS011;10210;52.284;9.892;2023-07-29T13:23:35;1.07;;;0.93;;
20101;SDS011;10210;52.284;9.892;2023-07-29T13:26:01;1.63;;;1.03;;
20101;SDS011;10210;52.284;9.892;2023-07-29T13:28:26;2.70;;;1.10;;
20101;SDS011;10210;52.284;9.892;2023-07-29T13:30:52;2.33;;;1.37;;
20101;SDS011;10210;52.284;9.892;2023-07-29T13:33:18;3.40;;;1.17;;
20101;SDS011;10210;52.284;9.892;2023-07-29T13:35:44;1.70;;;1.10;;
20101;SDS011;10210;52.284;9.892;2023-07-29T13:38:09;8.97;;;4.30;;
20101;SDS011;10210;52.284;9.892;2023-07-29T13:40:36;2.57;;;1.70;;
20101;SDS011;10210;52.284;9.892;2023-07-29T13:43:01;2.90;;;1.80;;
20101;SDS011;10210;52.284;9.892;2023-07-29T13:45:27;8.13;;;3.87;;
20101;SDS011;10210;52.284;9.892;2023-07-29T13:47:53;19.30;;;12.87;;
20101;SDS011;10210;52.284;9.892;2023-07-29T13:50:18;10.37;;;4.77;;
20101;SDS011;10210;52.284;9.892;2023-07-29T13:52:44;6.30;;;2.37;;
20101;SDS011;10210;52.284;9.892;2023-07-29T13:55:10;23.47;;;20.33;;
20101;SDS011;10210;52.284;9.892;2023-07-29T13:57:36;26.13;;;23.10;;
20101;SDS011;10210;52.284;9.892;2023-07-29T14:00:04;10.03;;;4.83;;
20101;SDS011;10210;52.284;9.892;2023-07-29T14:02:31;3.77;;;1.87;;
20101;SDS011;10210;52.284;9.892;2023-07-29T14:04:57;3.40;;;1.57;;
20101;SDS011;10210;52.284;9.892;2023-07-29T14:07:23;2.17;;;1.23;;
20101;SDS011;10210;52.284;9.892;2023-07-29T14:09:48;2.53;;;1.30;;
20101;SDS011;10210;52.284;9.892;2023-07-29T14:12:14;1.80;;;1.03;;
20101;SDS011;10210;52.284;9.892;2023-07-29T14:14:41;1.95;;;1.23;;
20101;SDS011;10210;52.284;9.892;2023-07-29T14:17:07;1.55;;;0.98;;
20101;SDS011;10210;52.284;9.892;2023-07-29T14:19:36;2.00;;;1.10;;
20101;SDS011;10210;52.284;9.892;2023-07-29T14:22:02;1.40;;;1.13;;
20101;SDS011;10210;52.284;9.892;2023-07-29T14:24:29;1.88;;;1.10;;
20101;SDS011;10210;52.284;9.892;2023-07-29T14:26:54;2.05;;;1.00;;
20101;SDS011;10210;52.284;9.892;2023-07-29T14:29:20;1.90;;;1.10;;
20101;SDS011;10210;52.284;9.892;2023-07-29T14:31:46;1.93;;;1.07;;
20101;SDS011;10210;52.284;9.892;2023-07-29T14:34:12;3.33;;;1.10;;
20101;SDS011;10210;52.284;9.892;2023-07-29T14:36:38;1.53;;;1.10;;
20101;SDS011;10210;52.284;9.892;2023-07-29T14:39:03;3.23;;;1.17;;
20101;SDS011;10210;52.284;9.892;2023-07-29T14:41:30;3.83;;;1.57;;
20101;SDS011;10210;52.284;9.892;2023-07-29T14:43:56;2.67;;;1.30;;
20101;SDS011;10210;52.284;9.892;2023-07-29T14:46:22;2.13;;;1.17;;
20101;SDS011;10210;52.284;9.892;2023-07-29T14:48:47;2.77;;;1.10;;
20101;SDS011;10210;52.284;9.892;2023-07-29T14:51:13;3.63;;;1.50;;
20101;SDS011;10210;52.284;9.892;2023-07-29T14:53:39;2.33;;;1.30;;
20101;SDS011;10210;52.284;9.892;2023-07-29T14:56:06;3.10;;;1.30;;
20101;SDS011;10210;52.284;9.892;2023-07-29T14:58:31;3.33;;;1.10;;
20101;SDS011;10210;52.284;9.892;2023-07-29T15:00:57;2.77;;;1.60;;
20101;SDS011;10210;52.284;9.892;2023-07-29T15:03:23;2.50;;;1.30;;
20101;SDS011;10210;52.284;9.892;2023-07-29T15:05:50;1.53;;;1.10;;